YSSYYSCB

Guest
Details From YSSY - Sydney Intl
To YSCB - Canberra
Flight Number -
Tags Generated
Created
Modified
Stats Distance 127 nm / 236 km
Max Altitude 0 ft / 0 m
Waypoints 2
Social Downloads 5
Likes 0
Share VATSIM

Download

Looking for another format? Having issues loading an existing format? Contact us
Advertisement - Login to hide

Notes

Generated

Route

YSSY YSCB

ID Type Via Altitude Latitude Longitude Leg Dist Tot Dist Heading (true) Name
O YSSY APT - 0 ft / 0 m -33.94962˚ 151.18832˚ - 0 nm - -
O YSCB APT - 0 ft / 0 m -35.29060˚ 149.19447˚ 127 nm 127 nm 230° / 231° -

Altitude Profile

Advertisement - Login to hide

YSSY

Details ICAO YSSY (SYD)
Name Sydney Intl
Region Australia
Timezone Australia/Sydney (UTC+11.0)
Stats Elevation 21 ft / 6 m (AMSL)
Location -33.949273° 151.181347°
Runways 3
Magnetic Variation 12.599° E

METAR

YSSY 112100Z 31006KT 290V350 9999 FEW014 24/18 Q1019 NOSIG

Decode

TAF

TAF YSSY 111633Z 1118/1224 04005KT 9999 SCT020 FM112200 04012KT 9999 SCT035 FM120100 05015G25KT CAVOK FM121000 03010KT CAVOK

Decode

Departure Runways

ID Width Length Bearing (true) Bearing (mag) Surface Threshold Offset Overrun Length
07 148 ft / 45 m 8,285 ft / 2,525 m 74.13° 61.53° Asphalt 0 ft / 0 m 0 ft / 0 m
16L 148 ft / 45 m 8,018 ft / 2,444 m 167.81° 155.21° Asphalt 758 ft / 231 m 0 ft / 0 m
16R 148 ft / 45 m 13,033 ft / 3,973 m 167.86° 155.26° Asphalt 279 ft / 85 m 0 ft / 0 m
25 148 ft / 45 m 8,285 ft / 2,525 m 254.12° 241.52° Asphalt 324 ft / 99 m 0 ft / 0 m
34L 148 ft / 45 m 13,033 ft / 3,973 m 347.85° 335.25° Asphalt 0 ft / 0 m 0 ft / 0 m
34R 148 ft / 45 m 8,018 ft / 2,444 m 347.81° 335.21° Asphalt 125 ft / 38 m 0 ft / 0 m

YSCB

Details ICAO YSCB (CBR)
Name Canberra
Region Australia
Timezone Australia/Sydney (UTC+11.0)
Stats Elevation 1,887 ft / 575 m (AMSL)
Location -35.305478° 149.193342°
Runways 2
Magnetic Variation 12.402° E

METAR

YSCB 112100Z 11005KT 9999 SCT022 19/13 Q1020 NOSIG

Decode

TAF

TAF AMD YSCB 112035Z 1120/1218 35006KT 9999 SCT020 SCT030 FM120000 31012KT CAVOK BECMG 1209/1210 07015KT 9999 FEW020 FM121300 14005KT 9999 FEW015 BKN020

Decode

Destination Runways

ID Width Length Bearing (true) Bearing (mag) Surface Threshold Offset Overrun Length
12 148 ft / 45 m 5,508 ft / 1,679 m 130.00° 117.60° Asphalt 0 ft / 0 m 0 ft / 0 m
17 148 ft / 45 m 10,793 ft / 3,290 m 180.00° 167.60° Asphalt 0 ft / 0 m 0 ft / 0 m
30 148 ft / 45 m 5,508 ft / 1,679 m 310.00° 297.60° Asphalt 226 ft / 69 m 0 ft / 0 m
35 148 ft / 45 m 10,793 ft / 3,290 m 0.00° 347.60° Asphalt 1,998 ft / 609 m 0 ft / 0 m

Approach Navaids

Runway Type Ident Frequency Range Bearing (true) Bearing (mag) Slope Elevation
35 Localiser ICB 109.50 MHz 18 nm / 33 km 360.00° 347.60° - 1,888 ft / 575 m (AMSL)
35 Glidescope ICB 109.50 MHz 10 nm / 19 km 180.00° 167.60° 3.00° 1,888 ft / 575 m (AMSL)
35 DME ICB 109.50 MHz 18 nm / 33 km - - - 1,888 ft / 575 m (AMSL)

Popular Alternatives